Time;durP1;ratioP1;P1;durP2;ratioP2;P2;SDS_P1;SDS_P2;PMS_P1;PMS_P2;Temp;Humidity;BMP_temperature;BMP_pressure;BME280_temperature;BME280_humidity;BME280_pressure;Samples;Min_cycle;Max_cycle;Signal;HPM_P1;HPM_P2
2023/07/13 00:02:11;;;;;;;;;;;;;;;;;;5304814;28;19900;-73
2023/07/13 00:04:42;;;;;;;;;;;;;;;;;;5303510;28;20251;-73
2023/07/13 00:07:14;;;;;;;;;;;;;;;;;;5304741;28;19910;-73
2023/07/13 00:09:46;;;;;;;;;;;;;;;;;;5303985;28;19904;-73
2023/07/13 00:12:17;;;;;;;;;;;;;;;;;;5303773;28;19908;-73
2023/07/13 00:14:49;;;;;;;;;;;;;;;;;;5304048;28;20263;-73
2023/07/13 00:17:20;;;;;;;;;;;;;;;;;;5304516;28;19912;-73
2023/07/13 00:19:51;;;;;;;;;;;;;;;;;;5303013;28;19904;-74
2023/07/13 00:22:25;;;;;;;;;;;;;;;;;;5304993;28;19912;-73
2023/07/13 00:24:56;;;;;;;;;;;;;;;;;;5303280;28;19908;-73
2023/07/13 00:27:29;;;;;;;;;;;;;;;;;;5304273;28;19983;-73
2023/07/13 00:30:00;;;;;;;;;;;;;;;;;;5303914;28;19915;-74
2023/07/13 00:32:31;;;;;;;;;;;;;;;;;;5302526;28;20473;-74
2023/07/13 00:35:04;;;;;;;;;;;;;;;;;;5303991;28;19908;-74
2023/07/13 00:37:36;;;;;;;;;;;;;;;;;;5303945;28;19916;-74
2023/07/13 00:40:07;;;;;;;;;;;;;;;;;;5303194;28;19950;-74
2023/07/13 00:42:38;;;;;;;;;;;;;;;;;;5303599;28;19904;-74
2023/07/13 00:45:09;;;;;;;;;;;;;;;;;;5303788;28;20368;-74
2023/07/13 00:47:40;;;;;;;;;;;;;;;;;;5302814;28;19915;-72
2023/07/13 00:50:11;;;;;;;;;;;;;;;;;;5304169;28;19904;-73
2023/07/13 00:52:42;;;;;;;;;;;;;;;;;;5303176;28;20358;-73
2023/07/13 00:55:13;;;;;;;;;;;;;;;;;;5303148;28;19915;-73
2023/07/13 00:57:45;;;;;;;;;;;;;;;;;;5303221;28;20282;-73
2023/07/13 01:00:17;;;;;;;;;;;;;;;;;;5302999;28;19904;-74
2023/07/13 01:02:48;;;;;;;;;;;;;;;;;;5303003;28;19987;-73
2023/07/13 01:05:19;;;;;;;;;;;;;;;;;;5303770;28;20007;-72
2023/07/13 01:07:51;;;;;;;;;;;;;;;;;;5302364;28;19990;-73
2023/07/13 01:10:22;;;;;;;;;;;;;;;;;;5303953;28;19950;-73
2023/07/13 01:12:54;;;;;;;;;;;;;;;;;;5303153;28;19904;-74
2023/07/13 01:15:25;;;;;;;;;;;;;;;;;;5302758;28;19927;-75
2023/07/13 01:17:56;;;;;;;;;;;;;;;;;;5303166;28;19938;-73
2023/07/13 01:20:27;;;;;;;;;;;;;;;;;;5303152;28;20037;-73
2023/07/13 01:22:59;;;;;;;;;;;;;;;;;;5302618;28;20321;-73
2023/07/13 01:25:30;;;;;;;;;;;;;;;;;;5303137;28;19904;-73
2023/07/13 01:28:01;;;;;;;;;;;;;;;;;;5302435;28;20282;-73
2023/07/13 01:30:32;;;;;;;;;;;;;;;;;;5303210;28;19911;-73
2023/07/13 01:33:04;;;;;;;;;;;;;;;;;;5302905;28;19920;-73
2023/07/13 01:35:35;;;;;;;;;;;;;;;;;;5302110;28;19904;-73
2023/07/13 01:38:08;;;;;;;;;;;;;;;;;;5303090;28;19908;-73
2023/07/13 01:40:39;;;;;;;;;;;;;;;;;;5303003;28;19911;-73
2023/07/13 01:43:10;;;;;;;;;;;;;;;;;;5302560;28;19903;-72
2023/07/13 01:45:42;;;;;;;;;;;;;;;;;;5306768;28;19911;-74
2023/07/13 01:48:14;;;;;;;;;;;;;;;;;;5307884;28;20003;-73
2023/07/13 01:50:45;;;;;;;;;;;;;;;;;;5306324;28;19986;-74
2023/07/13 01:53:16;;;;;;;;;;;;;;;;;;5307505;28;20026;-73
2023/07/13 01:55:47;;;;;;;;;;;;;;;;;;5306582;28;19952;-74
2023/07/13 01:58:18;;;;;;;;;;;;;;;;;;5306568;28;19904;-74
2023/07/13 02:00:49;;;;;;;;;;;;;;;;;;5306830;28;19904;-73
2023/07/13 02:03:21;;;;;;;;;;;;;;;;;;5306799;28;19993;-74
2023/07/13 02:05:52;;;;;;;;;;;;;;;;;;5306664;28;19907;-74
2023/07/13 02:08:23;;;;;;;;;;;;;;;;;;5306902;28;19910;-74
2023/07/13 02:10:54;;;;;;;;;;;;;;;;;;5305923;28;19908;-74
2023/07/13 02:13:25;;;;;;;;;;;;;;;;;;5306896;28;19943;-73
2023/07/13 02:15:56;;;;;;;;;;;;;;;;;;5306763;28;19908;-73
2023/07/13 02:18:27;;;;;;;;;;;;;;;;;;5305809;28;19961;-74
2023/07/13 02:20:59;;;;;;;;;;;;;;;;;;5306558;28;20267;-73
2023/07/13 02:23:30;;;;;;;;;;;;;;;;;;5306396;28;19904;-73
2023/07/13 02:26:02;;;;;;;;;;;;;;;;;;5305873;28;19904;-74
2023/07/13 02:28:33;;;;;;;;;;;;;;;;;;5306552;28;19988;-74
2023/07/13 02:31:04;;;;;;;;;;;;;;;;;;5306292;28;19916;-74
2023/07/13 02:33:35;;;;;;;;;;;;;;;;;;5305947;28;19912;-74
2023/07/13 02:36:07;;;;;;;;;;;;;;;;;;5306167;28;19938;-74
2023/07/13 02:38:38;;;;;;;;;;;;;;;;;;5305432;28;19948;-74
2023/07/13 02:41:09;;;;;;;;;;;;;;;;;;5306084;28;20267;-74
2023/07/13 02:43:40;;;;;;;;;;;;;;;;;;5305801;28;19943;-74
2023/07/13 02:46:11;;;;;;;;;;;;;;;;;;5305954;28;19991;-74
2023/07/13 02:48:43;;;;;;;;;;;;;;;;;;5305886;28;19931;-75
2023/07/13 02:51:14;;;;;;;;;;;;;;;;;;5306579;28;19931;-74
2023/07/13 02:53:45;;;;;;;;;;;;;;;;;;5304891;28;19911;-74
2023/07/13 02:56:16;;;;;;;;;;;;;;;;;;5305785;28;19919;-74
2023/07/13 02:58:47;;;;;;;;;;;;;;;;;;5305623;28;19956;-74
2023/07/13 03:01:18;;;;;;;;;;;;;;;;;;5305516;28;20300;-74
2023/07/13 03:03:49;;;;;;;;;;;;;;;;;;5305491;28;19959;-75
2023/07/13 03:06:21;;;;;;;;;;;;;;;;;;5305815;28;19900;-73
2023/07/13 03:08:53;;;;;;;;;;;;;;;;;;5304857;28;19939;-74
2023/07/13 03:11:24;;;;;;;;;;;;;;;;;;5305805;28;20020;-74
2023/07/13 03:13:55;;;;;;;;;;;;;;;;;;5304966;28;19904;-73
2023/07/13 03:16:26;;;;;;;;;;;;;;;;;;5305538;28;19907;-74
2023/07/13 03:18:57;;;;;;;;;;;;;;;;;;5305402;28;20385;-74
2023/07/13 03:21:29;;;;;;;;;;;;;;;;;;5304535;28;19904;-73
2023/07/13 03:24:00;;;;;;;;;;;;;;;;;;5305462;28;19950;-73
2023/07/13 03:26:31;;;;;;;;;;;;;;;;;;5305265;28;20056;-74
2023/07/13 03:29:02;;;;;;;;;;;;;;;;;;5304198;28;19904;-73
2023/07/13 03:31:33;;;;;;;;;;;;;;;;;;5304886;28;20349;-73
2023/07/13 03:34:04;;;;;;;;;;;;;;;;;;5304814;28;19904;-73
2023/07/13 03:36:36;;;;;;;;;;;;;;;;;;5303877;28;19912;-73
2023/07/13 03:39:08;;;;;;;;;;;;;;;;;;5304585;28;19904;-73
2023/07/13 03:41:39;;;;;;;;;;;;;;;;;;5304045;28;20365;-73
2023/07/13 03:44:10;;;;;;;;;;;;;;;;;;5304942;28;19990;-73
2023/07/13 03:46:41;;;;;;;;;;;;;;;;;;5304547;28;20002;-73
2023/07/13 03:49:12;;;;;;;;;;;;;;;;;;5304383;28;20006;-73
2023/07/13 03:51:43;;;;;;;;;;;;;;;;;;5304611;28;20402;-74
2023/07/13 03:54:14;;;;;;;;;;;;;;;;;;5304985;28;19995;-75
2023/07/13 03:56:45;;;;;;;;;;;;;;;;;;5303440;28;19912;-75
2023/07/13 03:59:17;;;;;;;;;;;;;;;;;;5304792;28;19904;-74
2023/07/13 04:01:48;;;;;;;;;;;;;;;;;;5304464;28;20340;-73
2023/07/13 04:04:19;;;;;;;;;;;;;;;;;;5304187;28;19904;-73
2023/07/13 04:06:52;;;;;;;;;;;;;;;;;;5303134;28;20019;-73
2023/07/13 04:09:23;;;;;;;;;;;;;;;;;;5304635;28;19904;-73
2023/07/13 04:11:54;;;;;;;;;;;;;;;;;;5303484;28;19900;-73
2023/07/13 04:14:25;;;;;;;;;;;;;;;;;;5304297;28;19910;-74
2023/07/13 04:16:57;;;;;;;;;;;;;;;;;;5303488;28;19912;-73
2023/07/13 04:19:28;;;;;;;;;;;;;;;;;;5304101;28;19904;-73
2023/07/13 04:21:59;;;;;;;;;;;;;;;;;;5304262;28;19959;-74
2023/07/13 04:24:30;;;;;;;;;;;;;;;;;;5303538;28;19943;-74
2023/07/13 04:27:02;;;;;;;;;;;;;;;;;;5304063;28;19904;-74
2023/07/13 04:29:33;;;;;;;;;;;;;;;;;;5304059;28;20007;-74
2023/07/13 04:32:05;;;;;;;;;;;;;;;;;;5302978;28;20011;-73
2023/07/13 04:34:36;;;;;;;;;;;;;;;;;;5303976;28;20397;-74
2023/07/13 04:37:07;;;;;;;;;;;;;;;;;;5303794;28;19919;-73
2023/07/13 04:39:38;;;;;;;;;;;;;;;;;;5303021;28;19904;-73
2023/07/13 04:42:09;;;;;;;;;;;;;;;;;;5303772;28;19965;-73
2023/07/13 04:44:40;;;;;;;;;;;;;;;;;;5303441;28;19908;-74
2023/07/13 04:47:12;;;;;;;;;;;;;;;;;;5303130;28;20007;-73
2023/07/13 04:49:43;;;;;;;;;;;;;;;;;;5303474;28;20465;-73
2023/07/13 04:52:14;;;;;;;;;;;;;;;;;;5303218;28;19995;-74
2023/07/13 04:54:45;;;;;;;;;;;;;;;;;;5303137;28;19957;-74
2023/07/13 04:57:16;;;;;;;;;;;;;;;;;;5303721;28;20346;-74
2023/07/13 04:59:47;;;;;;;;;;;;;;;;;;5302319;28;19939;-74
2023/07/13 05:02:18;;;;;;;;;;;;;;;;;;5303781;28;20319;-74
2023/07/13 05:04:50;;;;;;;;;;;;;;;;;;5303021;28;19904;-74
2023/07/13 05:07:21;;;;;;;;;;;;;;;;;;5302802;28;19904;-74
2023/07/13 05:09:52;;;;;;;;;;;;;;;;;;5303176;28;19927;-74
2023/07/13 05:12:23;;;;;;;;;;;;;;;;;;5303441;28;19931;-74
2023/07/13 05:14:54;;;;;;;;;;;;;;;;;;5302584;28;19938;-75
2023/07/13 05:17:25;;;;;;;;;;;;;;;;;;5302884;28;20002;-74
2023/07/13 05:19:56;;;;;;;;;;;;;;;;;;5303182;28;20356;-74
2023/07/13 05:22:27;;;;;;;;;;;;;;;;;;5302542;28;19990;-74
2023/07/13 05:24:59;;;;;;;;;;;;;;;;;;5302923;28;19951;-75
2023/07/13 05:27:30;;;;;;;;;;;;;;;;;;5302264;28;19957;-74
2023/07/13 05:30:01;;;;;;;;;;;;;;;;;;5303071;28;19904;-74
2023/07/13 05:32:32;;;;;;;;;;;;;;;;;;5302758;28;20413;-74
2023/07/13 05:35:03;;;;;;;;;;;;;;;;;;5302069;28;19919;-73
2023/07/13 05:37:35;;;;;;;;;;;;;;;;;;5302765;28;19912;-74
2023/07/13 05:40:06;;;;;;;;;;;;;;;;;;5302969;28;20243;-74
2023/07/13 05:42:37;;;;;;;;;;;;;;;;;;5307937;28;19960;-75
2023/07/13 05:45:08;;;;;;;;;;;;;;;;;;5323847;28;19911;-74
2023/07/13 05:47:39;;;;;;;;;;;;;;;;;;5323895;28;19918;-75
2023/07/13 05:50:10;;;;;;;;;;;;;;;;;;5323435;28;19948;-75
2023/07/13 05:52:41;;;;;;;;;;;;;;;;;;5323483;28;19911;-74
2023/07/13 05:55:13;;;;;;;;;;;;;;;;;;5323372;28;20266;-76
2023/07/13 05:57:44;;;;;;;;;;;;;;;;;;5323320;28;19912;-74
2023/07/13 06:00:15;;;;;;;;;;;;;;;;;;5324051;28;20375;-74
2023/07/13 06:02:46;;;;;;;;;;;;;;;;;;5322801;28;20377;-75
2023/07/13 06:05:17;;;;;;;;;;;;;;;;;;5323934;28;19904;-76
2023/07/13 06:07:48;;;;;;;;;;;;;;;;;;5323486;28;20273;-75
2023/07/13 06:10:19;;;;;;;;;;;;;;;;;;5323134;28;19908;-74
2023/07/13 06:12:51;;;;;;;;;;;;;;;;;;5323559;28;20251;-75
2023/07/13 06:15:22;;;;;;;;;;;;;;;;;;5324181;28;19910;-74
2023/07/13 06:17:53;;;;;;;;;;;;;;;;;;5322584;28;19968;-75
2023/07/13 06:20:24;;;;;;;;;;;;;;;;;;5323536;28;19908;-74
2023/07/13 06:22:55;;;;;;;;;;;;;;;;;;5323759;28;19904;-76
2023/07/13 06:25:26;;;;;;;;;;;;;;;;;;5322940;28;19904;-74
2023/07/13 06:27:57;;;;;;;;;;;;;;;;;;5323678;28;19976;-73
2023/07/13 06:30:28;;;;;;;;;;;;;;;;;;5325195;28;19990;-73
2023/07/13 06:33:00;;;;;;;;;;;;;;;;;;5327299;28;20370;-76
2023/07/13 06:35:31;;;;;;;;;;;;;;;;;;5327377;28;19995;-76
2023/07/13 06:38:02;;;;;;;;;;;;;;;;;;5326496;28;19965;-74
2023/07/13 06:40:33;;;;;;;;;;;;;;;;;;5327400;28;19930;-74
2023/07/13 06:43:04;;;;;;;;;;;;;;;;;;5327191;28;19914;-73
2023/07/13 06:45:35;;;;;;;;;;;;;;;;;;5326414;28;19990;-73
2023/07/13 06:48:07;;;;;;;;;;;;;;;;;;5327356;28;19943;-74
2023/07/13 06:50:38;;;;;;;;;;;;;;;;;;5327315;28;19964;-75
2023/07/13 06:53:09;;;;;;;;;;;;;;;;;;5325698;28;20007;-75
2023/07/13 06:55:40;;;;;;;;;;;;;;;;;;5326399;28;20323;-76
2023/07/13 06:58:12;;;;;;;;;;;;;;;;;;5327562;28;19903;-76
2023/07/13 07:00:43;;;;;;;;;;;;;;;;;;5325654;28;19914;-74
2023/07/13 07:03:14;;;;;;;;;;;;;;;;;;5327357;28;19904;-75
2023/07/13 07:05:45;;;;;;;;;;;;;;;;;;5325229;28;19904;-75
2023/07/13 07:08:16;;;;;;;;;;;;;;;;;;5327102;28;20300;-74
2023/07/13 07:10:51;;;;;;;;;;;;;;;;;;5326314;28;19962;-74
2023/07/13 07:13:22;;;;;;;;;;;;;;;;;;5326362;28;19930;-74
2023/07/13 07:15:53;;;;;;;;;;;;;;;;;;5326504;28;19903;-74
2023/07/13 07:18:24;;;;;;;;;;;;;;;;;;5326555;28;19962;-74
2023/07/13 07:20:55;;;;;;;;;;;;;;;;;;5325640;28;19995;-73
2023/07/13 07:23:26;;;;;;;;;;;;;;;;;;5326385;28;19952;-74
2023/07/13 07:25:58;;;;;;;;;;;;;;;;;;5326370;28;19911;-74
2023/07/13 07:28:29;;;;;;;;;;;;;;;;;;5325722;28;20361;-75
2023/07/13 07:31:00;;;;;;;;;;;;;;;;;;5326347;28;19904;-74
2023/07/13 07:33:31;;;;;;;;;;;;;;;;;;5326117;28;20055;-74
2023/07/13 07:36:03;;;;;;;;;;;;;;;;;;5325371;28;20022;-74
2023/07/13 07:38:34;;;;;;;;;;;;;;;;;;5326124;28;19915;-74
2023/07/13 07:41:05;;;;;;;;;;;;;;;;;;5325398;28;20312;-74
2023/07/13 07:43:36;;;;;;;;;;;;;;;;;;5325999;28;19907;-74
2023/07/13 07:46:07;;;;;;;;;;;;;;;;;;5325996;28;19939;-74
2023/07/13 07:48:38;;;;;;;;;;;;;;;;;;5325452;28;19907;-74
2023/07/13 07:51:09;;;;;;;;;;;;;;;;;;5325926;28;19904;-73
2023/07/13 07:53:41;;;;;;;;;;;;;;;;;;5325667;28;19904;-75
2023/07/13 07:56:12;;;;;;;;;;;;;;;;;;5325128;28;19915;-75
2023/07/13 07:58:43;;;;;;;;;;;;;;;;;;5325508;28;20229;-76
2023/07/13 08:01:15;;;;;;;;;;;;;;;;;;5326018;28;19899;-76
2023/07/13 08:03:47;;;;;;;;;;;;;;;;;;5324512;28;20304;-74
2023/07/13 08:06:19;;;;;;;;;;;;;;;;;;5325786;28;19900;-73
2023/07/13 08:08:50;;;;;;;;;;;;;;;;;;5324318;28;19927;-73
2023/07/13 08:11:22;;;;;;;;;;;;;;;;;;5326038;28;19908;-73
2023/07/13 08:13:53;;;;;;;;;;;;;;;;;;5324967;28;19950;-73
2023/07/13 08:16:24;;;;;;;;;;;;;;;;;;5324539;28;20384;-74
2023/07/13 08:18:55;;;;;;;;;;;;;;;;;;5325288;28;19946;-74
2023/07/13 08:21:26;;;;;;;;;;;;;;;;;;5325296;28;20251;-74
2023/07/13 08:23:57;;;;;;;;;;;;;;;;;;5324634;28;19931;-73
2023/07/13 08:26:28;;;;;;;;;;;;;;;;;;5325223;28;19995;-73
2023/07/13 08:29:00;;;;;;;;;;;;;;;;;;5325167;28;20451;-72
2023/07/13 08:31:31;;;;;;;;;;;;;;;;;;5324256;28;19915;-73
2023/07/13 08:34:02;;;;;;;;;;;;;;;;;;5325207;28;19908;-73
2023/07/13 08:36:33;;;;;;;;;;;;;;;;;;5325351;28;19962;-74
2023/07/13 08:39:06;;;;;;;;;;;;;;;;;;5324147;28;19930;-74
2023/07/13 08:41:37;;;;;;;;;;;;;;;;;;5324986;28;19903;-73
2023/07/13 08:44:09;;;;;;;;;;;;;;;;;;5324097;28;19903;-74
2023/07/13 08:46:40;;;;;;;;;;;;;;;;;;5324805;28;20222;-74
2023/07/13 08:49:11;;;;;;;;;;;;;;;;;;5325113;28;19910;-73
2023/07/13 08:51:43;;;;;;;;;;;;;;;;;;5323378;28;20358;-73
2023/07/13 08:54:14;;;;;;;;;;;;;;;;;;5324786;28;19914;-75
2023/07/13 08:56:45;;;;;;;;;;;;;;;;;;5324249;28;19966;-73
2023/07/13 08:59:18;;;;;;;;;;;;;;;;;;5324546;28;20408;-74
2023/07/13 09:01:49;;;;;;;;;;;;;;;;;;5324416;28;20437;-73
2023/07/13 09:04:22;;;;;;;;;;;;;;;;;;5324724;28;19994;-74
2023/07/13 09:06:53;;;;;;;;;;;;;;;;;;5323293;28;19900;-74
2023/07/13 09:09:24;;;;;;;;;;;;;;;;;;5324709;28;19903;-73
2023/07/13 09:11:55;;;;;;;;;;;;;;;;;;5324261;28;19908;-73
2023/07/13 09:14:26;;;;;;;;;;;;;;;;;;5323710;28;19903;-73
2023/07/13 09:16:57;;;;;;;;;;;;;;;;;;5324113;28;20003;-74
2023/07/13 09:19:28;;;;;;;;;;;;;;;;;;5323419;28;19961;-74
2023/07/13 09:21:59;;;;;;;;;;;;;;;;;;5324474;28;20338;-74
2023/07/13 09:24:30;;;;;;;;;;;;;;;;;;5324352;28;19956;-74
2023/07/13 09:27:03;;;;;;;;;;;;;;;;;;5323369;28;19998;-75
2023/07/13 09:29:34;;;;;;;;;;;;;;;;;;5324309;28;19915;-73
2023/07/13 09:32:06;;;;;;;;;;;;;;;;;;5323917;28;19916;-74
2023/07/13 09:34:37;;;;;;;;;;;;;;;;;;5323131;28;19911;-74
2023/07/13 09:37:08;;;;;;;;;;;;;;;;;;5323903;28;19918;-74
2023/07/13 09:39:39;;;;;;;;;;;;;;;;;;5323955;28;19904;-74
2023/07/13 09:42:10;;;;;;;;;;;;;;;;;;5323371;28;20344;-73
2023/07/13 09:44:41;;;;;;;;;;;;;;;;;;5323767;28;19963;-74
2023/07/13 09:47:12;;;;;;;;;;;;;;;;;;5323859;28;19951;-74
2023/07/13 09:49:44;;;;;;;;;;;;;;;;;;5323001;28;19907;-74
2023/07/13 09:52:15;;;;;;;;;;;;;;;;;;5324377;28;19911;-75
2023/07/13 09:54:48;;;;;;;;;;;;;;;;;;5322615;28;19980;-75
2023/07/13 09:57:19;;;;;;;;;;;;;;;;;;5324466;28;20083;-74
2023/07/13 09:59:50;;;;;;;;;;;;;;;;;;5323518;28;19998;-74
2023/07/13 10:02:21;;;;;;;;;;;;;;;;;;5323342;28;19948;-74
2023/07/13 10:04:53;;;;;;;;;;;;;;;;;;5324944;28;20373;-74
2023/07/13 10:07:24;;;;;;;;;;;;;;;;;;5328067;28;19953;-74
2023/07/13 10:09:55;;;;;;;;;;;;;;;;;;5327526;28;19900;-73
2023/07/13 10:12:27;;;;;;;;;;;;;;;;;;5327995;28;19941;-73
2023/07/13 10:14:58;;;;;;;;;;;;;;;;;;5327864;28;20368;-72
2023/07/13 10:17:32;;;;;;;;;;;;;;;;;;5326695;28;19967;-72
2023/07/13 10:20:04;;;;;;;;;;;;;;;;;;5327374;28;20396;-72
2023/07/13 10:22:35;;;;;;;;;;;;;;;;;;5326940;28;19908;-72
2023/07/13 10:25:06;;;;;;;;;;;;;;;;;;5327809;28;20366;-72
2023/07/13 10:27:37;;;;;;;;;;;;;;;;;;5327294;28;19904;-72
2023/07/13 10:30:08;;;;;;;;;;;;;;;;;;5326235;28;19904;-72
2023/07/13 10:32:40;;;;;;;;;;;;;;;;;;5325397;28;19922;-72
2023/07/13 10:35:11;;;;;;;;;;;;;;;;;;5327546;28;19910;-71
2023/07/13 10:37:42;;;;;;;;;;;;;;;;;;5325978;28;19923;-72
2023/07/13 10:40:13;;;;;;;;;;;;;;;;;;5327800;28;19904;-72
2023/07/13 10:42:44;;;;;;;;;;;;;;;;;;5326880;28;19954;-73
2023/07/13 10:45:15;;;;;;;;;;;;;;;;;;5327195;28;19904;-72
2023/07/13 10:47:47;;;;;;;;;;;;;;;;;;5327143;28;19904;-73
2023/07/13 10:50:18;;;;;;;;;;;;;;;;;;5327480;28;19910;-73
2023/07/13 10:52:54;;;;;;;;;;;;;;;;;;5326112;28;20301;-73
2023/07/13 10:55:25;;;;;;;;;;;;;;;;;;5327078;28;19908;-73
2023/07/13 10:57:56;;;;;;;;;;;;;;;;;;5326397;28;20772;-73
2023/07/13 11:00:27;;;;;;;;;;;;;;;;;;5327145;28;19915;-74
2023/07/13 11:03:00;;;;;;;;;;;;;;;;;;5326979;28;19954;-72
2023/07/13 11:05:31;;;;;;;;;;;;;;;;;;5326228;28;20255;-73
2023/07/13 11:08:02;;;;;;;;;;;;;;;;;;5326839;28;19949;-73
2023/07/13 11:10:34;;;;;;;;;;;;;;;;;;5326871;28;20340;-73
2023/07/13 11:13:05;;;;;;;;;;;;;;;;;;5325847;28;19998;-72
2023/07/13 11:15:36;;;;;;;;;;;;;;;;;;5326296;28;20006;-74
2023/07/13 11:18:07;;;;;;;;;;;;;;;;;;5326449;28;19994;-72
2023/07/13 11:20:39;;;;;;;;;;;;;;;;;;5325743;28;19951;-73
2023/07/13 11:23:10;;;;;;;;;;;;;;;;;;5326499;28;19943;-73
2023/07/13 11:25:41;;;;;;;;;;;;;;;;;;5326074;28;19904;-73
2023/07/13 11:28:12;;;;;;;;;;;;;;;;;;5325964;28;19908;-73
2023/07/13 11:30:43;;;;;;;;;;;;;;;;;;5325889;28;19905;-72
2023/07/13 11:33:14;;;;;;;;;;;;;;;;;;5325793;28;19981;-72
2023/07/13 11:35:46;;;;;;;;;;;;;;;;;;5325930;28;19926;-74
2023/07/13 11:38:17;;;;;;;;;;;;;;;;;;5326503;28;19911;-75
2023/07/13 11:40:48;;;;;;;;;;;;;;;;;;5324917;28;19994;-76
2023/07/13 11:43:19;;;;;;;;;;;;;;;;;;5326469;28;19995;-73
2023/07/13 11:45:50;;;;;;;;;;;;;;;;;;5325873;28;20354;-74
2023/07/13 11:48:21;;;;;;;;;;;;;;;;;;5325623;28;19993;-73
2023/07/13 11:50:53;;;;;;;;;;;;;;;;;;5325542;28;19964;-74
2023/07/13 11:53:24;;;;;;;;;;;;;;;;;;5325836;28;20282;-74
2023/07/13 11:55:55;;;;;;;;;;;;;;;;;;5324962;28;19952;-74
2023/07/13 11:58:28;;;;;;;;;;;;;;;;;;5325837;28;19991;-75
2023/07/13 12:01:00;;;;;;;;;;;;;;;;;;5325012;28;19912;-74
2023/07/13 12:03:31;;;;;;;;;;;;;;;;;;5325750;28;19926;-75
2023/07/13 12:06:03;;;;;;;;;;;;;;;;;;5325548;28;19904;-74
2023/07/13 12:08:34;;;;;;;;;;;;;;;;;;5325031;28;19927;-74
2023/07/13 12:11:05;;;;;;;;;;;;;;;;;;5325583;28;19998;-74
2023/07/13 12:13:36;;;;;;;;;;;;;;;;;;5325530;28;19910;-75
2023/07/13 12:16:07;;;;;;;;;;;;;;;;;;5324569;28;19907;-75
2023/07/13 12:18:39;;;;;;;;;;;;;;;;;;5325297;28;19908;-74
2023/07/13 12:21:10;;;;;;;;;;;;;;;;;;5325921;28;19903;-74
2023/07/13 12:23:42;;;;;;;;;;;;;;;;;;5324153;28;19904;-75
2023/07/13 12:26:13;;;;;;;;;;;;;;;;;;5325903;28;20277;-74
2023/07/13 12:28:44;;;;;;;;;;;;;;;;;;5324113;28;19914;-74
2023/07/13 12:31:15;;;;;;;;;;;;;;;;;;5324436;28;20286;-74
2023/07/13 12:33:46;;;;;;;;;;;;;;;;;;5324921;28;19910;-75
2023/07/13 12:36:17;;;;;;;;;;;;;;;;;;5324639;28;19907;-75
2023/07/13 12:38:48;;;;;;;;;;;;;;;;;;5324526;28;19957;-75
2023/07/13 12:41:20;;;;;;;;;;;;;;;;;;5325250;28;20374;-75
2023/07/13 12:43:51;;;;;;;;;;;;;;;;;;5323805;28;19904;-76
2023/07/13 12:46:22;;;;;;;;;;;;;;;;;;5325276;28;19961;-75
2023/07/13 12:48:54;;;;;;;;;;;;;;;;;;5324457;28;19946;-74
2023/07/13 12:51:25;;;;;;;;;;;;;;;;;;5323814;28;20399;-75
2023/07/13 12:53:56;;;;;;;;;;;;;;;;;;5324702;28;20278;-74
2023/07/13 12:56:27;;;;;;;;;;;;;;;;;;5324450;28;19958;-74
2023/07/13 12:58:58;;;;;;;;;;;;;;;;;;5323689;28;20377;-75
2023/07/13 13:01:29;;;;;;;;;;;;;;;;;;5324421;28;19903;-75
2023/07/13 13:04:01;;;;;;;;;;;;;;;;;;5324091;28;20328;-74
2023/07/13 13:06:32;;;;;;;;;;;;;;;;;;5323570;28;19939;-75
2023/07/13 13:09:03;;;;;;;;;;;;;;;;;;5324330;28;19908;-74
2023/07/13 13:11:34;;;;;;;;;;;;;;;;;;5323793;28;20461;-75
2023/07/13 13:14:07;;;;;;;;;;;;;;;;;;5324342;28;19904;-75
2023/07/13 13:16:38;;;;;;;;;;;;;;;;;;5324317;28;20377;-73
2023/07/13 13:19:09;;;;;;;;;;;;;;;;;;5323440;28;19907;-74
2023/07/13 13:21:41;;;;;;;;;;;;;;;;;;5324000;28;20358;-75
2023/07/13 13:24:12;;;;;;;;;;;;;;;;;;5324653;28;19999;-74
2023/07/13 13:26:43;;;;;;;;;;;;;;;;;;5323318;28;19904;-74
2023/07/13 13:29:15;;;;;;;;;;;;;;;;;;5324552;28;20413;-74
2023/07/13 13:31:46;;;;;;;;;;;;;;;;;;5323636;28;20010;-74
2023/07/13 13:34:17;;;;;;;;;;;;;;;;;;5323710;28;19904;-75
2023/07/13 13:36:48;;;;;;;;;;;;;;;;;;5323716;28;19912;-74
2023/07/13 13:39:20;;;;;;;;;;;;;;;;;;5328221;28;19957;-74
2023/07/13 13:41:51;;;;;;;;;;;;;;;;;;5330278;28;19903;-74
2023/07/13 13:44:22;;;;;;;;;;;;;;;;;;5331364;28;19904;-75
2023/07/13 13:46:53;;;;;;;;;;;;;;;;;;5330169;28;19910;-75
2023/07/13 13:49:24;;;;;;;;;;;;;;;;;;5331176;28;19912;-75
2023/07/13 13:51:55;;;;;;;;;;;;;;;;;;5330918;28;19907;-75
2023/07/13 13:54:27;;;;;;;;;;;;;;;;;;5330212;28;19904;-74
2023/07/13 13:56:58;;;;;;;;;;;;;;;;;;5330974;28;19922;-75
2023/07/13 13:59:32;;;;;;;;;;;;;;;;;;5331189;28;19910;-75
2023/07/13 14:02:03;;;;;;;;;;;;;;;;;;5330310;28;19910;-74
2023/07/13 14:04:34;;;;;;;;;;;;;;;;;;5331050;28;19907;-76
2023/07/13 14:07:05;;;;;;;;;;;;;;;;;;5330806;28;20351;-75
2023/07/13 14:09:37;;;;;;;;;;;;;;;;;;5330097;28;19903;-75
2023/07/13 14:12:08;;;;;;;;;;;;;;;;;;5330822;28;19904;-75
2023/07/13 14:14:40;;;;;;;;;;;;;;;;;;5329945;28;20396;-75
2023/07/13 14:17:12;;;;;;;;;;;;;;;;;;5330988;28;20002;-75
2023/07/13 14:19:43;;;;;;;;;;;;;;;;;;5330499;28;19907;-75
2023/07/13 14:22:14;;;;;;;;;;;;;;;;;;5330234;28;19920;-75
2023/07/13 14:24:45;;;;;;;;;;;;;;;;;;5330538;28;20376;-76
2023/07/13 14:27:17;;;;;;;;;;;;;;;;;;5331021;28;19993;-74
2023/07/13 14:29:48;;;;;;;;;;;;;;;;;;5329698;28;19911;-75
2023/07/13 14:32:19;;;;;;;;;;;;;;;;;;5330790;28;19968;-74
2023/07/13 14:34:51;;;;;;;;;;;;;;;;;;5330603;28;20380;-76
2023/07/13 14:37:22;;;;;;;;;;;;;;;;;;5324591;28;19984;-77
2023/07/13 14:39:54;;;;;;;;;;;;;;;;;;5327246;28;20395;-75
2023/07/13 14:42:25;;;;;;;;;;;;;;;;;;5330326;28;19908;-76
2023/07/13 14:44:56;;;;;;;;;;;;;;;;;;5315131;28;19908;-73
2023/07/13 14:47:27;;;;;;;;;;;;;;;;;;5308883;28;19984;-73
2023/07/13 14:49:58;;;;;;;;;;;;;;;;;;5305875;28;20452;-73
2023/07/13 14:52:29;;;;;;;;;;;;;;;;;;5304002;28;20192;-73
2023/07/13 14:55:00;;;;;;;;;;;;;;;;;;5305368;28;20405;-72
2023/07/13 14:57:32;;;;;;;;;;;;;;;;;;5305215;28;19956;-73
2023/07/13 15:00:03;;;;;;;;;;;;;;;;;;5305961;28;19983;-73
2023/07/13 15:02:34;;;;;;;;;;;;;;;;;;5305439;28;19904;-76
2023/07/13 15:05:05;;;;;;;;;;;;;;;;;;5304828;28;20401;-74
2023/07/13 15:07:36;;;;;;;;;;;;;;;;;;5305430;28;20377;-78
2023/07/13 15:10:07;;;;;;;;;;;;;;;;;;5305211;28;19904;-75
2023/07/13 15:12:38;;;;;;;;;;;;;;;;;;5304475;28;20017;-74
2023/07/13 15:15:09;;;;;;;;;;;;;;;;;;5305464;28;20354;-75
2023/07/13 15:17:41;;;;;;;;;;;;;;;;;;5304915;28;19912;-76
2023/07/13 15:20:12;;;;;;;;;;;;;;;;;;5305115;28;19904;-74
2023/07/13 15:22:43;;;;;;;;;;;;;;;;;;5305817;28;20143;-75
2023/07/13 15:25:14;;;;;;;;;;;;;;;;;;5305333;28;19951;-74
2023/07/13 15:27:45;;;;;;;;;;;;;;;;;;5305420;28;19904;-74
2023/07/13 15:30:16;;;;;;;;;;;;;;;;;;5304953;28;19904;-74
2023/07/13 15:32:48;;;;;;;;;;;;;;;;;;5303887;28;20026;-74
2023/07/13 15:35:19;;;;;;;;;;;;;;;;;;5305246;28;19900;-73
2023/07/13 15:37:50;;;;;;;;;;;;;;;;;;5304645;28;20675;-74
2023/07/13 15:40:21;;;;;;;;;;;;;;;;;;5304646;28;19987;-71
2023/07/13 15:42:52;;;;;;;;;;;;;;;;;;5304545;28;19939;-73
2023/07/13 15:45:28;;;;;;;;;;;;;;;;;;5305106;28;19950;-73
2023/07/13 15:47:59;;;;;;;;;;;;;;;;;;5304223;28;19904;-72
2023/07/13 15:50:32;;;;;;;;;;;;;;;;;;5304497;28;19904;-73
2023/07/13 15:53:03;;;;;;;;;;;;;;;;;;5304274;28;19911;-74
2023/07/13 15:55:34;;;;;;;;;;;;;;;;;;5304287;28;19903;-78
2023/07/13 15:58:05;;;;;;;;;;;;;;;;;;5305003;28;20321;-75
2023/07/13 16:00:36;;;;;;;;;;;;;;;;;;5303322;28;19936;-74
2023/07/13 16:03:07;;;;;;;;;;;;;;;;;;5304147;28;20212;-78
2023/07/13 16:05:38;;;;;;;;;;;;;;;;;;5304005;28;19998;-75
2023/07/13 16:08:10;;;;;;;;;;;;;;;;;;5304034;28;20002;-73
2023/07/13 16:10:41;;;;;;;;;;;;;;;;;;5304197;28;19904;-77
2023/07/13 16:13:12;;;;;;;;;;;;;;;;;;5304452;28;19910;-76
2023/07/13 16:15:44;;;;;;;;;;;;;;;;;;5303197;28;20433;-77
2023/07/13 16:18:16;;;;;;;;;;;;;;;;;;5304419;28;19923;-75
2023/07/13 16:20:47;;;;;;;;;;;;;;;;;;5303709;28;19910;-76
2023/07/13 16:23:18;;;;;;;;;;;;;;;;;;5303609;28;20247;-76
2023/07/13 16:25:51;;;;;;;;;;;;;;;;;;5303662;28;20359;-77
2023/07/13 16:28:22;;;;;;;;;;;;;;;;;;5303466;28;19954;-76
2023/07/13 16:30:53;;;;;;;;;;;;;;;;;;5303300;28;20278;-79
2023/07/13 16:33:25;;;;;;;;;;;;;;;;;;5304014;28;19918;-74
2023/07/13 16:35:57;;;;;;;;;;;;;;;;;;5303336;28;19904;-75
2023/07/13 16:38:29;;;;;;;;;;;;;;;;;;5303877;28;20438;-77
2023/07/13 16:41:00;;;;;;;;;;;;;;;;;;5303981;28;19962;-76
2023/07/13 16:43:31;;;;;;;;;;;;;;;;;;5302717;28;20311;-78
2023/07/13 16:46:03;;;;;;;;;;;;;;;;;;5304047;28;19904;-77
2023/07/13 16:48:34;;;;;;;;;;;;;;;;;;5303561;28;19915;-75
2023/07/13 16:51:06;;;;;;;;;;;;;;;;;;5303307;28;19960;-76
2023/07/13 16:53:40;;;;;;;;;;;;;;;;;;5303136;28;19903;-78
2023/07/13 16:56:12;;;;;;;;;;;;;;;;;;5303805;28;19904;-77
2023/07/13 16:58:43;;;;;;;;;;;;;;;;;;5302632;28;19915;-77
2023/07/13 17:01:15;;;;;;;;;;;;;;;;;;5303934;28;19904;-76
2023/07/13 17:03:46;;;;;;;;;;;;;;;;;;5302391;28;19904;-76
2023/07/13 17:06:17;;;;;;;;;;;;;;;;;;5303698;28;19911;-75
2023/07/13 17:08:50;;;;;;;;;;;;;;;;;;5303001;28;19904;-75
2023/07/13 17:11:22;;;;;;;;;;;;;;;;;;5302963;28;19999;-77
2023/07/13 17:13:53;;;;;;;;;;;;;;;;;;5302649;28;20037;-78